Terminal Aerodrome Forecast
Issued by NWS

Home | Current Version | Previous Version | Text Only | Print | Product List | Glossary On
Versions: 1 2 3 4 5 6 7 8 9 10 11 12 13 14 15 16 17 18 19 20 21 22 23
000
FTUS44 KLIX 262337
TAFGPT
TAF
KGPT 262337Z 2700/2724 14012KT P6SM SCT010 SCT013
     FM271000 17007KT P6SM OVC015
     FM271500 17010KT P6SM BKN035 PROB30 2716/2720 4SM -SHRA=

USA.gov is the U.S. government's official web portal to all federal, state and local government web resources and services.